Time;durP1;ratioP1;P1;durP2;ratioP2;P2;SDS_P1;SDS_P2;PMS_P1;PMS_P2;Temp;Humidity;BMP_temperature;BMP_pressure;BME280_temperature;BME280_humidity;BME280_pressure;Samples;Min_cycle;Max_cycle;Signal;HPM_P1;HPM_P2
2024/03/11 00:01:04;;;;;;;20.33;10.80;;;10.70;99.90;;;;;;4889416;29;20131;-83
2024/03/11 00:03:34;;;;;;;16.55;8.32;;;10.80;99.90;;;;;;4903837;29;20053;-82
2024/03/11 00:06:03;;;;;;;17.55;8.65;;;10.70;99.90;;;;;;4892410;29;20059;-82
2024/03/11 00:08:32;;;;;;;15.90;7.82;;;10.70;99.90;;;;;;4900063;29;20576;-82
2024/03/11 00:11:04;;;;;;;17.27;8.15;;;10.70;99.90;;;;;;4887922;29;20381;-82
2024/03/11 00:13:33;;;;;;;18.65;8.80;;;10.70;99.90;;;;;;4890797;29;20051;-79
2024/03/11 00:16:02;;;;;;;15.32;8.00;;;10.60;99.90;;;;;;4889999;29;20513;-82
2024/03/11 00:18:31;;;;;;;17.30;7.70;;;10.60;99.90;;;;;;4891809;29;20354;-83
2024/03/11 00:20:59;;;;;;;18.95;9.32;;;10.60;99.90;;;;;;4905645;29;20053;-82
2024/03/11 00:23:28;;;;;;;18.95;8.60;;;10.60;99.90;;;;;;4906260;29;20056;-82
2024/03/11 00:25:57;;;;;;;21.02;8.80;;;10.60;99.90;;;;;;4888921;29;20404;-83
2024/03/11 00:28:28;;;;;;;17.77;8.55;;;10.50;99.90;;;;;;4890076;29;20045;-81
2024/03/11 00:30:56;;;;;;;18.23;8.75;;;10.50;99.90;;;;;;4890558;29;20385;-79
2024/03/11 00:33:26;;;;;;;16.00;7.85;;;10.40;99.90;;;;;;4902391;29;20128;-81
2024/03/11 00:35:54;;;;;;;18.75;7.80;;;10.40;99.90;;;;;;4890086;29;20047;-81
2024/03/11 00:38:24;;;;;;;20.33;8.27;;;10.40;99.90;;;;;;4903126;29;20433;-84
2024/03/11 00:40:52;;;;;;;18.80;9.32;;;10.40;99.90;;;;;;4899092;29;20353;-83
2024/03/11 00:43:21;;;;;;;20.17;7.93;;;10.40;99.90;;;;;;4890537;29;20072;-85
2024/03/11 00:45:51;;;;;;;16.38;8.10;;;10.40;99.90;;;;;;4904049;29;20067;-82
2024/03/11 00:48:20;;;;;;;21.70;9.23;;;10.30;99.90;;;;;;4886837;29;20052;-80
2024/03/11 00:50:49;;;;;;;19.60;7.85;;;10.40;99.90;;;;;;4885482;29;20560;-84
2024/03/11 00:53:18;;;;;;;17.15;8.65;;;10.40;99.90;;;;;;4904059;29;20048;-83
2024/03/11 00:55:46;;;;;;;17.77;8.65;;;10.30;99.90;;;;;;4887992;29;20417;-84
2024/03/11 00:58:15;;;;;;;16.55;7.53;;;10.40;99.90;;;;;;4888810;29;20049;-84
2024/03/11 01:00:44;;;;;;;18.08;7.90;;;10.40;99.90;;;;;;4890070;29;20104;-84
2024/03/11 01:03:14;;;;;;;18.65;7.95;;;10.30;99.90;;;;;;4888899;29;20064;-83
2024/03/11 01:05:43;;;;;;;16.73;8.85;;;10.30;99.90;;;;;;4886634;29;20064;-83
2024/03/11 01:08:12;;;;;;;16.52;8.93;;;10.30;99.90;;;;;;4890685;29;20389;-84
2024/03/11 01:10:40;;;;;;;19.05;8.02;;;10.30;99.90;;;;;;4904653;29;20481;-84
2024/03/11 01:13:08;;;;;;;15.48;8.50;;;10.30;99.90;;;;;;4896830;29;20500;-84
2024/03/11 01:15:37;;;;;;;20.42;8.88;;;10.30;99.90;;;;;;4887062;29;20158;-83
2024/03/11 01:18:06;;;;;;;15.60;7.97;;;10.30;99.90;;;;;;4890658;29;20206;-83
2024/03/11 01:20:35;;;;;;;17.73;8.60;;;10.30;99.90;;;;;;4903125;29;20052;-84
2024/03/11 01:23:05;;;;;;;18.75;8.65;;;10.30;99.90;;;;;;4890698;29;20048;-84
2024/03/11 01:25:34;;;;;;;18.10;8.00;;;10.30;99.90;;;;;;4887775;29;20080;-82
2024/03/11 01:28:02;;;;;;;18.02;8.80;;;10.30;99.90;;;;;;4902438;29;20682;-83
2024/03/11 01:30:33;;;;;;;20.65;9.18;;;10.30;99.90;;;;;;4903250;29;20053;-84
2024/03/11 01:33:05;;;;;;;17.48;8.60;;;10.30;99.90;;;;;;4905719;29;20416;-84
2024/03/11 01:35:37;;;;;;;17.35;8.02;;;10.30;99.90;;;;;;4886700;29;20045;-84
2024/03/11 01:38:05;;;;;;;17.45;8.13;;;10.30;99.90;;;;;;4903364;29;20473;-84
2024/03/11 01:40:34;;;;;;;19.65;10.18;;;10.30;99.90;;;;;;4901811;29;20524;-84
2024/03/11 01:43:03;;;;;;;18.92;9.25;;;10.30;99.90;;;;;;4886580;29;20069;-85
2024/03/11 01:45:32;;;;;;;18.45;9.55;;;10.30;99.90;;;;;;4886400;29;20045;-84
2024/03/11 01:48:03;;;;;;;19.15;8.95;;;10.30;99.90;;;;;;4900926;29;20049;-85
2024/03/11 01:50:32;;;;;;;15.80;8.90;;;10.30;99.90;;;;;;4901603;29;20048;-84
2024/03/11 01:53:03;;;;;;;18.92;8.45;;;10.30;99.90;;;;;;4888913;29;20051;-84
2024/03/11 01:55:33;;;;;;;18.95;9.27;;;10.30;99.90;;;;;;4888982;29;20056;-84
2024/03/11 01:58:03;;;;;;;21.10;8.95;;;10.30;99.90;;;;;;4887295;29;20504;-83
2024/03/11 02:00:33;;;;;;;20.15;9.07;;;10.20;99.90;;;;;;4888572;29;20049;-82
2024/03/11 02:03:02;;;;;;;15.90;8.38;;;10.20;99.90;;;;;;4904073;29;20056;-83
2024/03/11 02:05:32;;;;;;;19.75;8.77;;;10.20;99.90;;;;;;4891447;29;20489;-83
2024/03/11 02:08:03;;;;;;;16.05;8.32;;;10.20;99.90;;;;;;4886733;29;20151;-83
2024/03/11 02:10:31;;;;;;;20.65;8.25;;;10.20;99.90;;;;;;4907467;29;20519;-83
2024/03/11 02:13:00;;;;;;;17.55;8.70;;;10.20;99.90;;;;;;4895301;29;20317;-84
2024/03/11 02:15:30;;;;;;;15.38;7.38;;;10.20;99.90;;;;;;4905072;29;20060;-84
2024/03/11 02:17:58;;;;;;;18.55;8.27;;;10.10;99.90;;;;;;4909728;29;20053;-83
2024/03/11 02:20:28;;;;;;;18.98;9.13;;;10.20;99.90;;;;;;4888768;29;20108;-80
2024/03/11 02:22:57;;;;;;;16.55;7.68;;;10.10;99.90;;;;;;4906018;29;20056;-85
2024/03/11 02:25:28;;;;;;;16.08;8.00;;;10.10;99.90;;;;;;4905117;29;20049;-83
2024/03/11 02:27:59;;;;;;;16.33;9.13;;;10.10;99.90;;;;;;4908182;29;20059;-84
2024/03/11 02:30:28;;;;;;;18.42;8.48;;;10.10;99.90;;;;;;4901263;29;20056;-84
2024/03/11 02:32:57;;;;;;;17.00;8.07;;;10.10;99.90;;;;;;4890651;29;20493;-83
2024/03/11 02:35:27;;;;;;;14.65;7.90;;;10.20;99.90;;;;;;4889939;29;20051;-86
2024/03/11 02:37:55;;;;;;;20.70;8.23;;;10.10;99.90;;;;;;4897556;29;20109;-84
2024/03/11 02:40:26;;;;;;;16.13;7.25;;;10.20;99.90;;;;;;4890756;29;20055;-86
2024/03/11 02:42:57;;;;;;;15.40;7.13;;;10.10;99.90;;;;;;4905311;29;20061;-86
2024/03/11 02:45:30;;;;;;;16.45;7.78;;;10.10;99.90;;;;;;4889280;29;20049;-85
2024/03/11 02:47:59;;;;;;;18.83;8.95;;;10.10;99.90;;;;;;4905455;29;20494;-85
2024/03/11 02:50:28;;;;;;;18.83;8.02;;;10.10;99.90;;;;;;4902849;29;20417;-84
2024/03/11 02:52:57;;;;;;;17.33;7.80;;;10.10;99.90;;;;;;4889958;29;20045;-85
2024/03/11 02:55:25;;;;;;;18.77;7.75;;;10.10;99.90;;;;;;4904731;29;20063;-84
2024/03/11 02:57:53;;;;;;;18.27;7.57;;;10.10;99.90;;;;;;4890110;29;20048;-83
2024/03/11 03:00:23;;;;;;;17.08;7.53;;;10.10;99.90;;;;;;4904977;29;20080;-86
2024/03/11 03:02:52;;;;;;;15.18;7.50;;;10.10;99.90;;;;;;4885758;29;20059;-82
2024/03/11 03:05:22;;;;;;;15.15;7.00;;;10.10;99.90;;;;;;4892574;29;20044;-86
2024/03/11 03:07:50;;;;;;;15.77;8.18;;;10.10;99.90;;;;;;4887911;29;20045;-81
2024/03/11 03:10:19;;;;;;;15.82;7.90;;;10.10;99.90;;;;;;4903956;29;20048;-82
2024/03/11 03:12:47;;;;;;;17.58;8.13;;;10.10;99.90;;;;;;4901883;29;20060;-83
2024/03/11 03:15:17;;;;;;;14.50;7.07;;;10.10;99.90;;;;;;4886912;29;21029;-85
2024/03/11 03:17:48;;;;;;;15.18;7.22;;;10.10;99.90;;;;;;4890205;29;20060;-83
2024/03/11 03:20:18;;;;;;;15.43;6.40;;;10.10;99.90;;;;;;4895408;29;20060;-81
2024/03/11 03:22:46;;;;;;;17.35;7.65;;;10.10;99.90;;;;;;4889475;29;20064;-84
2024/03/11 03:25:15;;;;;;;16.23;6.70;;;10.10;99.90;;;;;;4885919;29;20049;-82
2024/03/11 03:27:43;;;;;;;15.73;7.38;;;10.10;99.90;;;;;;4891738;29;20052;-84
2024/03/11 03:30:15;;;;;;;15.07;7.70;;;10.10;99.90;;;;;;4886156;29;20053;-84
2024/03/11 03:32:44;;;;;;;15.95;6.90;;;10.10;99.90;;;;;;4903491;29;20112;-84
2024/03/11 03:35:14;;;;;;;21.17;8.32;;;10.10;99.90;;;;;;4890589;29;20096;-83
2024/03/11 03:37:43;;;;;;;17.88;7.97;;;10.00;99.90;;;;;;4891307;29;20481;-84
2024/03/11 03:40:16;;;;;;;14.80;7.00;;;10.00;99.90;;;;;;4900765;29;20416;-82
2024/03/11 03:42:47;;;;;;;17.20;8.25;;;10.00;99.90;;;;;;4903562;29;20063;-82
2024/03/11 03:45:17;;;;;;;17.98;8.25;;;10.00;99.90;;;;;;4900425;29;20056;-84
2024/03/11 03:47:46;;;;;;;20.58;7.88;;;9.90;99.90;;;;;;4888059;29;20055;-84
2024/03/11 03:50:17;;;;;;;17.40;8.02;;;10.00;99.90;;;;;;4884002;29;20622;-84
2024/03/11 03:52:47;;;;;;;15.23;8.00;;;9.90;99.90;;;;;;4893116;29;20059;-85
2024/03/11 03:55:15;;;;;;;16.55;7.63;;;9.90;99.90;;;;;;4890563;29;20056;-85
2024/03/11 03:57:45;;;;;;;18.80;8.07;;;9.90;99.90;;;;;;4904308;29;20087;-84
2024/03/11 04:00:17;;;;;;;16.42;7.68;;;9.90;99.90;;;;;;4899343;29;20469;-85
2024/03/11 04:02:46;;;;;;;17.55;8.30;;;9.90;99.90;;;;;;4892637;29;20049;-84
2024/03/11 04:05:18;;;;;;;17.20;7.97;;;9.90;99.90;;;;;;4904282;29;20420;-84
2024/03/11 04:07:47;;;;;;;17.13;7.97;;;9.90;99.90;;;;;;4900606;29;20049;-85
2024/03/11 04:10:17;;;;;;;16.60;7.18;;;9.90;99.90;;;;;;4886748;29;20386;-85
2024/03/11 04:12:48;;;;;;;17.08;7.80;;;9.90;99.90;;;;;;4899172;29;20057;-85
2024/03/11 04:15:19;;;;;;;15.80;7.45;;;9.90;99.90;;;;;;4896964;29;20104;-85
2024/03/11 04:17:49;;;;;;;16.38;7.13;;;9.90;99.90;;;;;;4903371;29;20535;-86
2024/03/11 04:20:22;;;;;;;17.88;8.00;;;9.90;99.90;;;;;;4885877;29;20078;-85
2024/03/11 04:22:53;;;;;;;17.45;8.02;;;9.80;99.90;;;;;;4883889;29;20057;-85
2024/03/11 04:25:25;;;;;;;15.20;7.57;;;9.80;99.90;;;;;;4902623;29;20056;-84
2024/03/11 04:27:55;;;;;;;15.48;8.02;;;9.80;99.90;;;;;;4896722;29;20097;-83
2024/03/11 04:30:30;;;;;;;15.70;7.53;;;9.80;99.90;;;;;;4883839;29;20060;-85
2024/03/11 04:32:58;;;;;;;17.35;7.68;;;9.80;99.90;;;;;;4899514;29;20413;-85
2024/03/11 04:35:30;;;;;;;21.05;7.85;;;9.80;99.90;;;;;;4888823;29;20056;-80
2024/03/11 04:38:01;;;;;;;15.32;7.95;;;9.80;99.90;;;;;;4890046;29;20041;-86
2024/03/11 04:40:32;;;;;;;18.92;7.97;;;9.80;99.90;;;;;;4902921;29;20071;-85
2024/03/11 04:43:01;;;;;;;16.02;8.07;;;9.80;99.90;;;;;;4899752;29;20512;-85
2024/03/11 04:45:30;;;;;;;19.63;8.35;;;9.80;99.90;;;;;;4887353;29;20104;-85
2024/03/11 04:48:00;;;;;;;15.35;7.78;;;9.70;99.90;;;;;;4903741;29;20047;-85
2024/03/11 04:50:31;;;;;;;15.70;7.68;;;9.70;99.90;;;;;;4886960;29;20064;-84
2024/03/11 04:53:02;;;;;;;16.73;8.55;;;9.70;99.90;;;;;;4902718;29;20127;-83
2024/03/11 04:55:31;;;;;;;16.17;7.75;;;9.80;99.90;;;;;;4894740;29;20048;-84
2024/03/11 04:58:01;;;;;;;18.27;8.23;;;9.70;99.90;;;;;;4904579;29;20521;-85
2024/03/11 05:00:30;;;;;;;19.00;9.13;;;9.80;99.90;;;;;;4889906;29;20052;-85
2024/03/11 05:03:00;;;;;;;23.02;8.15;;;9.70;99.90;;;;;;4886427;29;20537;-84
2024/03/11 05:05:31;;;;;;;18.70;8.43;;;9.70;99.90;;;;;;4892635;29;20056;-85
2024/03/11 05:08:01;;;;;;;;;;;9.70;99.90;;;;;;4899536;29;20045;-84
2024/03/11 05:10:29;;;;;;;17.20;8.32;;;9.70;99.90;;;;;;4901634;29;20335;-84
2024/03/11 05:12:58;;;;;;;18.83;8.60;;;9.70;99.90;;;;;;4900009;29;20040;-84
2024/03/11 05:15:27;;;;;;;19.13;7.63;;;9.70;99.90;;;;;;4888414;29;20076;-85
2024/03/11 05:17:56;;;;;;;18.10;9.15;;;9.70;99.90;;;;;;4899552;29;20052;-84
2024/03/11 05:20:24;;;;;;;18.08;8.57;;;9.70;99.90;;;;;;4887611;29;20144;-83
2024/03/11 05:22:54;;;;;;;17.98;8.98;;;9.70;99.90;;;;;;4887500;29;20053;-85
2024/03/11 05:25:23;;;;;;;20.73;8.88;;;9.70;99.90;;;;;;4887547;29;20080;-83
2024/03/11 05:27:51;;;;;;;18.88;8.35;;;9.70;99.90;;;;;;4888493;29;20131;-86
2024/03/11 05:30:21;;;;;;;23.83;9.82;;;9.60;99.90;;;;;;4902759;29;20064;-80
2024/03/11 05:32:49;;;;;;;16.48;7.63;;;9.70;99.90;;;;;;4900439;29;20525;-83
2024/03/11 05:35:18;;;;;;;16.35;8.55;;;9.70;99.90;;;;;;4898679;29;20045;-84
2024/03/11 05:37:54;;;;;;;16.60;8.13;;;9.70;99.90;;;;;;4900272;29;20086;-84
2024/03/11 05:40:24;;;;;;;19.15;9.25;;;9.70;99.90;;;;;;4907364;29;20428;-82
2024/03/11 05:42:54;;;;;;;19.20;8.95;;;9.70;99.90;;;;;;4891908;29;20056;-81
2024/03/11 05:45:24;;;;;;;20.65;9.00;;;9.70;99.90;;;;;;4892893;29;20059;-84
2024/03/11 05:47:53;;;;;;;18.33;8.88;;;9.70;99.90;;;;;;4908996;29;20088;-84
2024/03/11 05:50:24;;;;;;;20.17;8.27;;;9.70;99.90;;;;;;4893945;29;20440;-84
2024/03/11 05:52:54;;;;;;;16.65;8.15;;;9.70;99.90;;;;;;4893444;29;20051;-83
2024/03/11 05:55:26;;;;;;;17.77;7.80;;;9.80;99.90;;;;;;4889770;29;20052;-83
2024/03/11 05:57:59;;;;;;;18.25;7.93;;;9.70;99.90;;;;;;4908859;29;20509;-85
2024/03/11 06:00:31;;;;;;;23.10;9.35;;;9.80;99.90;;;;;;4907335;29;20048;-85
2024/03/11 06:03:02;;;;;;;21.95;9.40;;;9.80;99.90;;;;;;4904718;29;20135;-83
2024/03/11 06:05:30;;;;;;;18.08;7.38;;;9.80;99.90;;;;;;4908057;29;20048;-85
2024/03/11 06:08:00;;;;;;;25.00;8.48;;;9.80;99.90;;;;;;4894103;29;20037;-84
2024/03/11 06:10:29;;;;;;;19.70;8.20;;;9.80;99.90;;;;;;4904410;29;20135;-83
2024/03/11 06:12:57;;;;;;;21.15;9.60;;;9.80;99.90;;;;;;4893014;29;20053;-83
2024/03/11 06:15:27;;;;;;;17.08;7.78;;;9.80;99.90;;;;;;4909340;29;20122;-81
2024/03/11 06:17:55;;;;;;;18.33;7.85;;;9.80;99.90;;;;;;4905230;29;20063;-84
2024/03/11 06:20:24;;;;;;;20.13;9.15;;;9.80;99.90;;;;;;4895233;29;20055;-81
2024/03/11 06:22:53;;;;;;;21.08;8.65;;;9.90;99.90;;;;;;4905902;29;20513;-83
2024/03/11 06:25:23;;;;;;;18.23;7.18;;;9.90;99.90;;;;;;4895029;29;20052;-85
2024/03/11 06:27:52;;;;;;;16.83;8.15;;;9.90;99.90;;;;;;4877202;29;20053;-85
2024/03/11 06:30:21;;;;;;;16.55;8.20;;;9.80;99.90;;;;;;4892793;29;20507;-84
2024/03/11 06:32:50;;;;;;;18.27;8.63;;;9.80;99.90;;;;;;4891968;29;20584;-84
2024/03/11 06:35:19;;;;;;;17.48;9.38;;;9.90;99.90;;;;;;4905000;29;20390;-85
2024/03/11 06:37:48;;;;;;;14.57;7.93;;;9.90;99.90;;;;;;4897689;29;20049;-85
2024/03/11 06:40:21;;;;;;;19.40;8.77;;;9.90;99.90;;;;;;4891803;29;20085;-86
2024/03/11 06:42:51;;;;;;;18.98;11.05;;;9.90;99.90;;;;;;4903953;29;20052;-86
2024/03/11 06:45:21;;;;;;;18.63;9.50;;;9.90;99.90;;;;;;4897402;29;20052;-87
2024/03/11 06:47:51;;;;;;;19.75;8.18;;;9.90;99.90;;;;;;4903457;29;20044;-85
2024/03/11 06:50:20;;;;;;;18.55;9.45;;;9.80;99.90;;;;;;4902566;29;20180;-85
2024/03/11 06:52:49;;;;;;;20.00;8.75;;;9.90;99.90;;;;;;4903200;29;20045;-85
2024/03/11 06:55:18;;;;;;;22.63;9.20;;;9.90;99.90;;;;;;4890024;29;20049;-85
2024/03/11 06:57:46;;;;;;;18.45;8.40;;;9.90;99.90;;;;;;4904519;29;20060;-86
2024/03/11 07:00:20;;;;;;;19.23;9.45;;;9.90;99.90;;;;;;4904318;29;20068;-85
2024/03/11 07:02:49;;;;;;;18.65;7.97;;;9.90;99.90;;;;;;4903715;29;20057;-88
2024/03/11 07:05:26;;;;;;;18.35;8.70;;;9.90;99.90;;;;;;4901993;29;20500;-89
2024/03/11 07:07:56;;;;;;;19.38;9.40;;;9.90;99.90;;;;;;4889358;29;20055;-83
2024/03/11 07:10:25;;;;;;;20.17;9.85;;;10.00;99.90;;;;;;4903331;29;20496;-86
2024/03/11 07:12:54;;;;;;;22.80;9.38;;;10.00;99.90;;;;;;4906166;29;20135;-87
2024/03/11 07:15:25;;;;;;;17.58;7.28;;;10.00;99.90;;;;;;4908021;29;20532;-85
2024/03/11 07:17:53;;;;;;;16.90;7.60;;;10.00;99.90;;;;;;4907676;29;20072;-84
2024/03/11 07:20:24;;;;;;;18.85;9.52;;;10.00;99.90;;;;;;4888603;29;20088;-84
2024/03/11 07:22:53;;;;;;;17.92;8.52;;;10.00;99.90;;;;;;4897148;29;20461;-85
2024/03/11 07:25:21;;;;;;;22.15;8.88;;;10.00;99.90;;;;;;4905357;29;20155;-82
2024/03/11 07:27:50;;;;;;;22.30;8.55;;;10.10;99.90;;;;;;4904579;29;20389;-84
2024/03/11 07:30:22;;;;;;;16.70;8.95;;;10.10;99.90;;;;;;4889590;29;20048;-84
2024/03/11 07:33:05;;;;;;;18.17;8.05;;;10.10;99.90;;;;;;4890366;29;20102;-85
2024/03/11 07:35:35;;;;;;;17.55;8.65;;;10.10;99.90;;;;;;4906818;29;20527;-84
2024/03/11 07:38:05;;;;;;;14.35;7.53;;;10.10;99.90;;;;;;4885475;29;20470;-86
2024/03/11 07:40:34;;;;;;;18.60;9.13;;;10.10;99.90;;;;;;4888216;29;20493;-85
2024/03/11 07:43:06;;;;;;;22.05;9.45;;;10.10;99.90;;;;;;4901660;29;20049;-87
2024/03/11 07:45:35;;;;;;;19.20;9.70;;;10.20;99.90;;;;;;4895454;29;20477;-88
2024/03/11 07:48:06;;;;;;;20.88;8.90;;;10.20;99.90;;;;;;4900416;29;20049;-84
2024/03/11 07:50:35;;;;;;;18.00;8.85;;;10.20;99.90;;;;;;4889121;29;20437;-86
2024/03/11 07:53:03;;;;;;;21.13;9.65;;;10.20;99.90;;;;;;4902336;29;20073;-86
2024/03/11 07:55:34;;;;;;;20.67;8.80;;;10.20;99.90;;;;;;4908238;29;20045;-84
2024/03/11 07:58:03;;;;;;;20.20;8.40;;;10.30;99.90;;;;;;4889804;29;20442;-86
2024/03/11 08:00:36;;;;;;;22.55;10.18;;;10.20;99.90;;;;;;4903072;29;20061;-83
2024/03/11 08:03:06;;;;;;;;;;;10.30;99.90;;;;;;4906134;29;20052;-83
2024/03/11 08:05:36;;;;;;;19.33;8.60;;;10.30;99.90;;;;;;4900756;29;19979;-83
2024/03/11 08:08:07;;;;;;;27.17;10.60;;;10.30;99.90;;;;;;4899619;29;20049;-82
2024/03/11 08:10:36;;;;;;;19.63;8.20;;;10.30;99.90;;;;;;4890167;29;20108;-85
2024/03/11 08:13:07;;;;;;;27.70;10.13;;;10.40;99.90;;;;;;4883335;29;20446;-85
2024/03/11 08:15:37;;;;;;;19.60;9.60;;;10.40;99.90;;;;;;4888947;29;20508;-89
2024/03/11 08:18:09;;;;;;;23.02;10.35;;;10.40;99.90;;;;;;4904701;29;20045;-85
2024/03/11 08:20:38;;;;;;;22.10;9.90;;;10.40;99.90;;;;;;4891283;29;20153;-85
2024/03/11 08:23:07;;;;;;;22.77;10.25;;;10.50;99.90;;;;;;4904346;29;20049;-84
2024/03/11 08:25:36;;;;;;;24.65;9.57;;;10.50;99.90;;;;;;4901822;29;20057;-86
2024/03/11 08:28:05;;;;;;;21.75;9.90;;;10.60;99.90;;;;;;4903792;29;20072;-84
2024/03/11 08:30:34;;;;;;;21.55;9.13;;;10.70;99.90;;;;;;4906529;29;20072;-88
2024/03/11 08:33:06;;;;;;;18.52;8.68;;;10.70;99.90;;;;;;4892875;29;20194;-85
2024/03/11 08:35:34;;;;;;;21.73;9.50;;;10.70;99.90;;;;;;4887992;29;20060;-86
2024/03/11 08:38:03;;;;;;;18.33;7.97;;;10.80;99.90;;;;;;4886662;29;20127;-83
2024/03/11 08:40:31;;;;;;;20.38;9.38;;;10.80;99.90;;;;;;4899983;29;20052;-85
2024/03/11 08:43:00;;;;;;;21.27;9.10;;;10.80;99.90;;;;;;4887030;29;20060;-88
2024/03/11 08:45:32;;;;;;;17.70;7.10;;;10.80;99.90;;;;;;4902838;29;20520;-80
2024/03/11 08:48:01;;;;;;;22.42;10.13;;;10.80;99.90;;;;;;4891988;29;20159;-84
2024/03/11 08:50:31;;;;;;;18.75;8.63;;;10.80;99.90;;;;;;4902665;29;20207;-86
2024/03/11 08:53:00;;;;;;;18.45;9.70;;;10.80;99.90;;;;;;4886987;29;20148;-86
2024/03/11 08:55:34;;;;;;;21.85;9.90;;;10.80;99.90;;;;;;4909029;29;20104;-84
2024/03/11 08:58:05;;;;;;;21.23;10.75;;;10.90;99.90;;;;;;4906281;29;20097;-86
2024/03/11 09:00:36;;;;;;;22.17;9.65;;;10.90;99.90;;;;;;4902843;29;20045;-86
2024/03/11 09:03:05;;;;;;;20.55;9.55;;;10.90;99.90;;;;;;4901151;29;20155;-82
2024/03/11 09:05:35;;;;;;;21.50;9.90;;;10.80;99.90;;;;;;4900226;29;20104;-83
2024/03/11 09:08:04;;;;;;;20.42;9.65;;;10.90;99.90;;;;;;4904867;29;20049;-82
2024/03/11 09:10:32;;;;;;;20.20;9.73;;;10.90;99.90;;;;;;4885686;29;20051;-85
2024/03/11 09:13:02;;;;;;;20.20;8.68;;;10.90;99.90;;;;;;4901518;29;20057;-83
2024/03/11 09:15:31;;;;;;;18.88;9.15;;;10.90;99.90;;;;;;4904317;29;20517;-82
2024/03/11 09:18:00;;;;;;;22.40;10.07;;;10.90;99.90;;;;;;4897164;29;20080;-86
2024/03/11 09:20:31;;;;;;;24.33;10.15;;;10.90;99.90;;;;;;4885255;29;20143;-85
2024/03/11 09:23:01;;;;;;;19.48;8.63;;;10.90;99.90;;;;;;4899028;29;20203;-83
2024/03/11 09:25:30;;;;;;;17.30;7.95;;;11.00;99.90;;;;;;4889835;29;20064;-83
2024/03/11 09:28:01;;;;;;;20.90;8.77;;;10.90;99.90;;;;;;4904289;29;20056;-86
2024/03/11 09:30:35;;;;;;;19.33;9.00;;;11.00;99.90;;;;;;4889219;29;20049;-89
2024/03/11 09:33:08;;;;;;;18.02;8.45;;;11.00;99.90;;;;;;4891462;29;20064;-87
2024/03/11 09:35:37;;;;;;;23.10;9.93;;;11.00;99.90;;;;;;4903582;29;20048;-82
2024/03/11 09:38:07;;;;;;;19.92;9.27;;;11.00;99.90;;;;;;4887519;29;20136;-85
2024/03/11 09:40:36;;;;;;;18.13;7.80;;;11.00;99.90;;;;;;4888115;29;20183;-83
2024/03/11 09:43:11;;;;;;;20.65;9.77;;;11.00;99.90;;;;;;4897788;29;20113;-85
2024/03/11 09:45:44;;;;;;;21.42;10.25;;;11.00;99.90;;;;;;4898889;29;20052;-86
2024/03/11 09:48:13;;;;;;;20.42;9.57;;;11.10;99.90;;;;;;4904590;29;20056;-85
2024/03/11 09:50:42;;;;;;;20.25;10.25;;;11.10;99.90;;;;;;4902993;29;20079;-89
2024/03/11 09:53:13;;;;;;;19.85;10.00;;;11.10;99.90;;;;;;4884714;29;20075;-83
2024/03/11 09:55:43;;;;;;;19.10;8.25;;;11.20;99.90;;;;;;4901704;29;20072;-80
2024/03/11 09:58:15;;;;;;;23.73;10.90;;;11.20;99.90;;;;;;4886622;29;20048;-85
2024/03/11 10:00:55;;;;;;;20.50;9.52;;;11.30;99.90;;;;;;4898838;29;20413;-82
2024/03/11 10:03:27;;;;;;;20.45;8.88;;;11.40;99.90;;;;;;4885591;29;20075;-85
2024/03/11 10:05:57;;;;;;;22.38;10.60;;;11.40;99.90;;;;;;4882592;29;20145;-84
2024/03/11 10:08:30;;;;;;;22.63;10.93;;;11.50;99.90;;;;;;4887384;29;20143;-88
2024/03/11 10:11:15;;;;;;;27.73;10.75;;;11.50;99.90;;;;;;4882509;29;20048;-88
2024/03/11 10:13:45;;;;;;;20.23;9.38;;;11.40;99.90;;;;;;4891555;29;20123;-78
2024/03/11 10:16:16;;;;;;;19.48;8.80;;;11.40;99.90;;;;;;4885577;29;20057;-80
2024/03/11 10:18:55;;;;;;;18.88;8.23;;;11.40;99.90;;;;;;4901910;29;20104;-84
2024/03/11 10:21:28;;;;;;;21.48;10.38;;;11.40;99.90;;;;;;4885058;29;20053;-84
2024/03/11 10:24:02;;;;;;;23.98;11.05;;;11.30;99.90;;;;;;4883727;29;20056;-85
2024/03/11 10:26:33;;;;;;;21.35;10.35;;;11.40;99.90;;;;;;4889254;29;20056;-83
2024/03/11 10:29:02;;;;;;;19.25;8.68;;;11.40;99.90;;;;;;4888628;29;20509;-86
2024/03/11 10:31:33;;;;;;;23.08;10.15;;;11.40;99.90;;;;;;4904243;29;20088;-84
2024/03/11 10:34:12;;;;;;;19.48;10.30;;;11.40;99.90;;;;;;4908700;29;20056;-86
2024/03/11 10:36:46;;;;;;;23.42;10.27;;;11.40;99.90;;;;;;4887671;29;20464;-84
2024/03/11 10:39:30;;;;;;;24.95;11.77;;;11.40;99.90;;;;;;4907859;29;20056;-86
2024/03/11 10:42:01;;;;;;;24.30;11.05;;;11.30;99.90;;;;;;4905707;29;20053;-84
2024/03/11 10:44:30;;;;;;;25.08;11.77;;;11.30;99.90;;;;;;4894289;29;20081;-84
2024/03/11 10:47:14;;;;;;;28.92;11.57;;;11.40;99.90;;;;;;4903130;29;20053;-84
2024/03/11 10:49:47;;;;;;;24.88;11.70;;;11.40;99.90;;;;;;4891329;29;20072;-84
2024/03/11 10:52:20;;;;;;;22.73;9.98;;;11.40;99.90;;;;;;4901906;29;20048;-86
2024/03/11 10:54:54;;;;;;;19.70;10.20;;;11.40;99.90;;;;;;4892909;29;20394;-81
2024/03/11 10:57:43;;;;;;;20.77;9.68;;;11.40;99.90;;;;;;4910122;29;20112;-89
2024/03/11 11:00:21;;;;;;;17.10;8.13;;;11.50;99.90;;;;;;4909141;29;20496;-79
2024/03/11 11:02:57;;;;;;;20.98;10.02;;;11.60;99.90;;;;;;4906435;29;20112;-81
2024/03/11 11:05:32;;;;;;;20.88;9.82;;;11.60;99.90;;;;;;4904350;29;20055;-83
2024/03/11 11:08:03;;;;;;;23.60;9.75;;;11.70;99.90;;;;;;4905907;29;20525;-83
2024/03/11 11:10:38;;;;;;;22.00;9.75;;;11.70;99.90;;;;;;4888905;29;20141;-80
2024/03/11 11:13:11;;;;;;;22.13;9.77;;;11.80;99.90;;;;;;4888025;29;20052;-84
2024/03/11 11:15:45;;;;;;;23.45;11.18;;;11.80;99.90;;;;;;4892128;29;20668;-90
2024/03/11 11:18:17;;;;;;;22.83;11.23;;;11.90;99.90;;;;;;4903493;29;20116;-87
2024/03/11 11:20:49;;;;;;;23.73;10.93;;;11.90;99.90;;;;;;4906335;29;20528;-89
2024/03/11 11:23:27;;;;;;;21.85;10.05;;;11.90;99.90;;;;;;4891122;29;20053;-83
2024/03/11 11:25:58;;;;;;;23.73;10.30;;;11.90;99.90;;;;;;4889073;29;20045;-84
2024/03/11 11:28:29;;;;;;;21.60;10.43;;;11.90;99.90;;;;;;4902278;29;20088;-79
2024/03/11 11:31:25;;;;;;;16.42;7.32;;;11.90;99.90;;;;;;4900030;29;20048;-83
2024/03/11 11:33:57;;;;;;;23.85;10.23;;;11.80;99.90;;;;;;4888768;29;20135;-85
2024/03/11 11:37:02;;;;;;;23.27;10.82;;;11.80;99.90;;;;;;4903371;29;20049;-83
2024/03/11 11:39:33;;;;;;;21.92;9.18;;;11.80;99.90;;;;;;4888117;29;20059;-84
2024/03/11 11:42:06;;;;;;;19.10;9.65;;;11.80;99.90;;;;;;4887470;29;20041;-85
2024/03/11 11:44:49;;;;;;;;;;;11.90;99.90;;;;;;4901131;29;20044;-85
2024/03/11 11:47:23;;;;;;;18.23;8.95;;;11.90;99.90;;;;;;4901799;29;19923;-83
2024/03/11 11:49:53;;;;;;;20.85;10.00;;;11.90;99.90;;;;;;4890628;29;20075;-83
2024/03/11 11:52:22;;;;;;;22.63;10.85;;;11.90;99.90;;;;;;4889808;29;20097;-86
2024/03/11 11:54:55;;;;;;;26.10;11.43;;;11.90;99.90;;;;;;4905266;29;20053;-84
2024/03/11 11:57:25;;;;;;;23.10;10.88;;;12.00;99.90;;;;;;4886641;29;20113;-84
2024/03/11 11:59:59;;;;;;;19.48;6.88;;;12.00;99.90;;;;;;4885111;29;20057;-83
2024/03/11 12:02:31;;;;;;;20.30;10.38;;;12.00;99.90;;;;;;4903658;29;20072;-84
2024/03/11 12:05:01;;;;;;;20.52;10.07;;;12.00;99.90;;;;;;4885512;29;20045;-84
2024/03/11 12:07:38;;;;;;;21.42;10.07;;;12.10;99.90;;;;;;4887997;29;20539;-82
2024/03/11 12:10:10;;;;;;;23.73;9.52;;;12.10;99.90;;;;;;4889535;29;20055;-84
2024/03/11 12:12:44;;;;;;;27.08;13.93;;;12.20;99.90;;;;;;4905637;29;20148;-83
2024/03/11 12:15:17;;;;;;;22.83;11.85;;;12.30;99.90;;;;;;4888626;29;20067;-83
2024/03/11 12:17:48;;;;;;;19.63;10.15;;;12.20;99.90;;;;;;4902217;29;20056;-85
2024/03/11 12:20:19;;;;;;;25.08;11.40;;;12.30;99.90;;;;;;4886157;29;20064;-85
2024/03/11 12:22:49;;;;;;;20.08;9.90;;;12.30;99.90;;;;;;4905370;29;20113;-88
2024/03/11 12:25:18;;;;;;;22.13;9.40;;;12.30;99.90;;;;;;4902832;29;20524;-90
2024/03/11 12:27:53;;;;;;;22.30;10.30;;;12.20;99.90;;;;;;4902531;29;20056;-87
2024/03/11 12:30:36;;;;;;;19.83;9.82;;;12.20;99.90;;;;;;4902849;29;20409;-83
2024/03/11 12:33:06;;;;;;;19.90;10.50;;;12.30;99.90;;;;;;4890858;29;20041;-86
2024/03/11 12:35:43;;;;;;;21.70;9.93;;;12.30;99.90;;;;;;4892548;29;20412;-85
2024/03/11 12:38:14;;;;;;;19.08;9.40;;;12.30;99.90;;;;;;4901846;29;20432;-86
2024/03/11 12:40:46;;;;;;;16.30;9.07;;;12.40;99.90;;;;;;4891557;29;20116;-85
2024/03/11 12:43:19;;;;;;;16.95;9.40;;;12.50;99.90;;;;;;4908030;29;20044;-89
2024/03/11 12:45:52;;;;;;;24.27;9.75;;;12.50;99.90;;;;;;4888587;29;20143;-85
2024/03/11 12:48:23;;;;;;;16.55;8.43;;;12.60;99.90;;;;;;4885235;29;20059;-86
2024/03/11 12:50:56;;;;;;;16.48;7.63;;;12.70;99.90;;;;;;4904364;29;20055;-87
2024/03/11 12:53:26;;;;;;;18.00;7.97;;;12.60;99.90;;;;;;4902121;29;20457;-88
2024/03/11 12:56:07;;;;;;;15.65;7.47;;;12.50;99.90;;;;;;4894557;29;20063;-86